createdAt,value
2023-01-19T00:01:32.046Z,-18.79
2023-01-19T00:04:35.131Z,-18.84
2023-01-19T00:07:38.244Z,-18.84
2023-01-19T00:10:42.834Z,-18.85
2023-01-19T00:13:50.474Z,-18.92
2023-01-19T00:16:53.526Z,-18.92
2023-01-19T00:19:56.658Z,-18.95
2023-01-19T00:23:00.543Z,-18.98
2023-01-19T00:26:04.109Z,-18.98
2023-01-19T00:29:08.550Z,-19.02
2023-01-19T00:32:11.682Z,-19.05
2023-01-19T00:35:14.924Z,-19.11
2023-01-19T00:38:17.976Z,-19.02
2023-01-19T00:41:41.153Z,-19.13
2023-01-19T00:44:44.362Z,-19.21
2023-01-19T00:47:48.984Z,-19.24
2023-01-19T00:50:53.966Z,-19.31
2023-01-19T00:53:57.126Z,-19.29
2023-01-19T00:57:00.296Z,-19.25
2023-01-19T01:00:07.043Z,-19.26
2023-01-19T01:03:11.291Z,-19.26
2023-01-19T01:06:14.801Z,-19.26
2023-01-19T01:09:17.862Z,-19.33
2023-01-19T01:12:20.968Z,-19.39
2023-01-19T01:15:24.082Z,-19.49
2023-01-19T01:18:27.352Z,-19.50
2023-01-19T01:21:30.527Z,-19.53
2023-01-19T01:24:33.751Z,-19.52
2023-01-19T01:27:37.102Z,-19.49
2023-01-19T01:30:41.646Z,-19.52
2023-01-19T01:33:44.828Z,-19.48
2023-01-19T01:36:48.039Z,-19.47
2023-01-19T01:39:51.210Z,-19.40
2023-01-19T01:42:54.360Z,-19.39
2023-01-19T01:45:57.533Z,-19.32
2023-01-19T01:49:08.604Z,-19.30
2023-01-19T01:52:14.339Z,-19.16
2023-01-19T01:55:19.800Z,-18.95
2023-01-19T01:58:23.739Z,-18.84
2023-01-19T02:01:45.465Z,-18.80
2023-01-19T02:04:52.206Z,-18.80
2023-01-19T02:08:29.487Z,-18.86
2023-01-19T02:11:52.009Z,-18.91
2023-01-19T02:14:56.154Z,-18.83
2023-01-19T02:17:59.650Z,-18.74
2023-01-19T02:21:28.397Z,-18.70
2023-01-19T02:24:32.337Z,-18.67
2023-01-19T02:27:35.200Z,-18.59
2023-01-19T02:30:41.888Z,-18.60
2023-01-19T02:33:45.240Z,-18.59
2023-01-19T02:36:55.224Z,-18.56
2023-01-19T02:40:03.151Z,-18.57
2023-01-19T02:43:09.527Z,-18.46
2023-01-19T02:46:13.942Z,-18.37
2023-01-19T02:49:17.141Z,-18.32
2023-01-19T02:52:20.367Z,-18.24
2023-01-19T02:55:29.332Z,-18.27
2023-01-19T02:58:58.684Z,-18.25
2023-01-19T03:02:12.105Z,-18.27
2023-01-19T03:05:45.612Z,-18.34
2023-01-19T03:09:05.276Z,-18.38
2023-01-19T03:12:26.227Z,-18.32
2023-01-19T03:15:38.261Z,-18.19
2023-01-19T03:18:45.043Z,-18.27
2023-01-19T03:21:52.757Z,-18.31
2023-01-19T03:25:00.478Z,-18.35
2023-01-19T03:28:05.508Z,-18.36
2023-01-19T03:31:27.644Z,-18.17
2023-01-19T03:34:31.754Z,-18.04
2023-01-19T03:37:38.076Z,-17.91
2023-01-19T03:40:42.658Z,-17.75
2023-01-19T03:43:48.458Z,-17.62
2023-01-19T03:46:52.809Z,-17.54
2023-01-19T03:49:59.073Z,-17.61
2023-01-19T03:53:13.799Z,-17.76
2023-01-19T03:56:25.867Z,-17.85
2023-01-19T03:59:29.037Z,-17.95
2023-01-19T04:02:32.305Z,-17.97
2023-01-19T04:05:35.648Z,-17.91
2023-01-19T04:08:38.761Z,-17.93
2023-01-19T04:11:41.946Z,-17.87
2023-01-19T04:14:45.152Z,-18.01
2023-01-19T04:17:48.443Z,-17.93
2023-01-19T04:20:51.847Z,-17.76
2023-01-19T04:23:55.237Z,-17.53
2023-01-19T04:26:58.855Z,-17.42
2023-01-19T04:30:02.168Z,-17.54
2023-01-19T04:33:05.374Z,-17.51
2023-01-19T04:36:09.482Z,-17.53
2023-01-19T04:39:13.037Z,-17.50
2023-01-19T04:42:17.469Z,-17.43
2023-01-19T04:45:20.503Z,-17.39
2023-01-19T04:48:24.174Z,-17.34
2023-01-19T04:51:27.346Z,-17.29
2023-01-19T04:54:31.070Z,-17.28
2023-01-19T04:57:34.207Z,-17.28
2023-01-19T05:00:37.565Z,-17.25
2023-01-19T05:03:41.025Z,-17.16
2023-01-19T05:06:44.277Z,-16.90
2023-01-19T05:09:47.546Z,-16.75
2023-01-19T05:12:50.660Z,-16.68
2023-01-19T05:15:53.895Z,-16.74
2023-01-19T05:18:57.406Z,-16.81
2023-01-19T05:22:00.505Z,-16.66
2023-01-19T05:25:03.768Z,-16.61
2023-01-19T05:28:07.242Z,-16.60
2023-01-19T05:31:10.607Z,-16.75
2023-01-19T05:34:15.381Z,-16.81
2023-01-19T05:37:18.618Z,-16.81
2023-01-19T05:40:22.408Z,-16.73
2023-01-19T05:43:26.348Z,-16.61
2023-01-19T05:46:29.732Z,-16.64
2023-01-19T05:49:33.001Z,-16.62
2023-01-19T05:52:36.210Z,-16.64
2023-01-19T05:55:39.700Z,-16.56
2023-01-19T05:58:42.929Z,-16.47
2023-01-19T06:01:46.089Z,-16.41
2023-01-19T06:04:49.319Z,-16.29
2023-01-19T06:07:53.261Z,-16.24
2023-01-19T06:10:56.592Z,-16.22
2023-01-19T06:14:00.476Z,-16.45
2023-01-19T06:17:03.904Z,-16.48
2023-01-19T06:20:08.363Z,-16.54
2023-01-19T06:23:11.754Z,-16.71
2023-01-19T06:26:15.822Z,-16.84
2023-01-19T06:29:19.040Z,-16.92
2023-01-19T06:32:22.219Z,-16.97
2023-01-19T06:35:25.429Z,-16.96
2023-01-19T06:38:29.385Z,-17.04
2023-01-19T06:41:35.381Z,-17.06
2023-01-19T06:44:38.687Z,-17.12
2023-01-19T06:47:41.850Z,-17.17
2023-01-19T06:50:49.116Z,-17.32
2023-01-19T06:53:52.311Z,-17.44
2023-01-19T06:56:55.539Z,-17.48
2023-01-19T07:00:01.401Z,-17.49
2023-01-19T07:03:07.081Z,-17.45
2023-01-19T07:06:10.513Z,-17.59
2023-01-19T07:09:15.650Z,-17.61
2023-01-19T07:12:19.976Z,-17.50
2023-01-19T07:15:23.884Z,-17.48
2023-01-19T07:18:26.738Z,-17.51
2023-01-19T07:21:30.082Z,-17.69
2023-01-19T07:24:34.821Z,-17.63
2023-01-19T07:27:37.997Z,-17.61
2023-01-19T07:30:41.245Z,-17.47
2023-01-19T07:33:44.631Z,-17.48
2023-01-19T07:36:48.381Z,-17.61
2023-01-19T07:39:51.859Z,-17.75
2023-01-19T07:42:55.100Z,-17.80
2023-01-19T07:46:04.716Z,-17.83
2023-01-19T07:49:07.885Z,-17.91
2023-01-19T07:52:11.333Z,-17.89
2023-01-19T07:55:14.503Z,-17.86
2023-01-19T07:58:17.549Z,-17.84
2023-01-19T08:01:20.739Z,-17.90
2023-01-19T08:04:23.919Z,-18.06
2023-01-19T08:07:27.336Z,-18.19
2023-01-19T08:10:30.617Z,-18.28
2023-01-19T08:13:33.764Z,-18.41
2023-01-19T08:16:37.728Z,-18.50
2023-01-19T08:19:42.228Z,-18.63
2023-01-19T08:22:48.284Z,-18.72
2023-01-19T08:25:51.500Z,-18.77
2023-01-19T08:28:55.306Z,-18.91
2023-01-19T08:32:00.607Z,-19.04
2023-01-19T08:35:03.981Z,-19.23
2023-01-19T08:38:08.519Z,-19.33
2023-01-19T08:41:12.672Z,-19.44
2023-01-19T08:44:16.604Z,-19.50
2023-01-19T08:47:19.821Z,-19.58
2023-01-19T08:50:23.538Z,-19.65
2023-01-19T08:53:26.773Z,-19.70
2023-01-19T08:56:29.939Z,-19.76
2023-01-19T08:59:33.075Z,-19.85
2023-01-19T09:02:36.437Z,-19.86
2023-01-19T09:05:40.501Z,-19.95
2023-01-19T09:08:44.364Z,-20.02
2023-01-19T09:11:47.574Z,-20.14
2023-01-19T09:14:50.666Z,-20.24
2023-01-19T09:17:53.994Z,-20.33
2023-01-19T09:20:59.021Z,-20.34
2023-01-19T09:24:02.146Z,-20.48
2023-01-19T09:27:05.343Z,-20.54
2023-01-19T09:30:12.102Z,-20.55
2023-01-19T09:33:17.805Z,-20.50
2023-01-19T09:36:20.928Z,-20.45
2023-01-19T09:39:24.089Z,-20.45
2023-01-19T09:42:34.168Z,-20.55
2023-01-19T09:46:03.217Z,-20.80
2023-01-19T09:49:34.440Z,-20.94
2023-01-19T09:52:44.363Z,-20.97
2023-01-19T09:55:47.535Z,-21.01
2023-01-19T09:58:52.537Z,-21.06
2023-01-19T10:02:20.614Z,-21.15
2023-01-19T10:05:33.101Z,-21.23
2023-01-19T10:08:53.409Z,-21.29
2023-01-19T10:12:04.920Z,-21.37
2023-01-19T10:15:30.572Z,-21.40
2023-01-19T10:18:46.698Z,-21.42
2023-01-19T10:21:52.428Z,-21.45
2023-01-19T10:25:02.955Z,-21.48
2023-01-19T10:28:06.174Z,-21.52
2023-01-19T10:31:10.893Z,-21.57
2023-01-19T10:34:23.343Z,-21.58
2023-01-19T10:37:38.745Z,-21.56
2023-01-19T10:40:59.526Z,-21.60
2023-01-19T10:44:06.879Z,-21.57
2023-01-19T10:47:18.979Z,-21.54
2023-01-19T10:50:33.875Z,-21.53
2023-01-19T10:53:38.734Z,-21.57
2023-01-19T10:56:42.974Z,-21.63
2023-01-19T10:59:46.535Z,-21.63
2023-01-19T11:02:52.801Z,-21.62
2023-01-19T11:06:16.095Z,-21.63
2023-01-19T11:09:22.082Z,-21.70
2023-01-19T11:12:25.520Z,-21.72
2023-01-19T11:15:34.042Z,-21.71
2023-01-19T11:18:40.223Z,-21.75
2023-01-19T11:21:43.592Z,-21.79
2023-01-19T11:24:46.719Z,-21.85
2023-01-19T11:27:52.754Z,-21.91
2023-01-19T11:31:02.447Z,-21.86
2023-01-19T11:34:23.159Z,-21.84
2023-01-19T11:37:35.353Z,-21.85
2023-01-19T11:40:39.268Z,-21.88
2023-01-19T11:43:49.092Z,-21.91
2023-01-19T11:46:57.532Z,-21.97
2023-01-19T11:50:24.269Z,-21.91
2023-01-19T11:53:33.979Z,-21.91
2023-01-19T11:56:37.535Z,-21.86
2023-01-19T11:59:40.863Z,-21.84
2023-01-19T12:02:47.965Z,-21.84
2023-01-19T12:05:59.717Z,-21.85
2023-01-19T12:09:05.021Z,-21.87
2023-01-19T12:12:12.912Z,-21.86
2023-01-19T12:15:46.877Z,-21.68
2023-01-19T12:19:07.255Z,-21.65
2023-01-19T12:22:16.023Z,-21.64
2023-01-19T12:25:26.740Z,-21.69
2023-01-19T12:28:38.487Z,-21.72
2023-01-19T12:31:43.662Z,-21.70
2023-01-19T12:34:47.870Z,-21.72
2023-01-19T12:37:51.003Z,-21.82
2023-01-19T12:41:16.631Z,-21.84
2023-01-19T12:44:26.289Z,-21.82
2023-01-19T12:47:29.738Z,-21.83
2023-01-19T12:50:38.599Z,-21.83
2023-01-19T12:53:58.605Z,-21.87
2023-01-19T12:57:05.511Z,-21.85
2023-01-19T13:00:29.019Z,-21.85
2023-01-19T13:03:32.138Z,-21.86
2023-01-19T13:06:50.468Z,-21.87
2023-01-19T13:09:53.898Z,-21.86
2023-01-19T13:13:19.557Z,-21.85
2023-01-19T13:16:23.272Z,-21.81
2023-01-19T13:19:37.727Z,-21.81
2023-01-19T13:22:52.152Z,-21.78
2023-01-19T13:26:07.303Z,-21.73
2023-01-19T13:29:34.542Z,-21.72
2023-01-19T13:32:40.500Z,-21.75
2023-01-19T13:35:52.160Z,-21.80
2023-01-19T13:38:57.580Z,-21.74
2023-01-19T13:42:04.502Z,-21.74
2023-01-19T13:45:22.297Z,-21.71
2023-01-19T13:48:26.435Z,-21.78
2023-01-19T13:51:29.672Z,-21.81
2023-01-19T13:54:33.038Z,-21.84
2023-01-19T13:57:43.446Z,-21.86
2023-01-19T14:00:47.362Z,-21.91
2023-01-19T14:03:52.972Z,-21.93
2023-01-19T14:07:05.755Z,-21.93
2023-01-19T14:10:15.054Z,-21.94
2023-01-19T14:13:22.524Z,-21.94
2023-01-19T14:16:25.772Z,-21.93
2023-01-19T14:19:29.341Z,-21.89
2023-01-19T14:22:41.866Z,-21.79
2023-01-19T14:25:45.890Z,-21.71
2023-01-19T14:28:49.077Z,-21.68
2023-01-19T14:31:59.291Z,-21.67
2023-01-19T14:35:05.764Z,-21.66
2023-01-19T14:38:15.138Z,-21.68
2023-01-19T14:41:33.029Z,-21.67
2023-01-19T14:44:40.418Z,-21.65
2023-01-19T14:47:46.912Z,-21.59
2023-01-19T14:51:02.680Z,-21.57
2023-01-19T14:54:07.272Z,-21.55
2023-01-19T14:57:19.058Z,-21.55
2023-01-19T15:00:22.661Z,-21.57
2023-01-19T15:03:34.957Z,-21.57
2023-01-19T15:06:46.534Z,-21.60
2023-01-19T15:09:50.283Z,-21.62
2023-01-19T15:12:55.540Z,-21.74
2023-01-19T15:15:59.581Z,-21.84
2023-01-19T15:19:02.889Z,-21.85
2023-01-19T15:22:15.489Z,-21.87
2023-01-19T15:25:26.753Z,-21.92
2023-01-19T15:28:31.352Z,-22.04
2023-01-19T15:31:34.601Z,-22.09
2023-01-19T15:34:38.017Z,-22.14
2023-01-19T15:37:41.314Z,-22.20
2023-01-19T15:40:44.680Z,-22.42
2023-01-19T15:43:48.651Z,-22.87
2023-01-19T15:46:53.868Z,-23.34
2023-01-19T15:49:57.992Z,-23.56
2023-01-19T15:53:01.304Z,-23.66
2023-01-19T15:56:04.505Z,-23.82
2023-01-19T15:59:07.651Z,-23.86
2023-01-19T16:02:10.980Z,-23.88
2023-01-19T16:05:13.873Z,-23.92
2023-01-19T16:08:17.553Z,-23.99
2023-01-19T16:11:20.905Z,-24.01
2023-01-19T16:14:24.075Z,-23.98
2023-01-19T16:17:27.406Z,-24.04
2023-01-19T16:20:30.281Z,-24.09
2023-01-19T16:23:33.384Z,-24.28
2023-01-19T16:26:37.303Z,-24.56
2023-01-19T16:29:40.405Z,-24.67
2023-01-19T16:32:43.504Z,-24.64
2023-01-19T16:35:46.892Z,-24.52
2023-01-19T16:38:50.056Z,-24.57
2023-01-19T16:41:53.286Z,-24.61
2023-01-19T16:44:56.920Z,-24.73
2023-01-19T16:48:00.001Z,-24.82
2023-01-19T16:51:06.794Z,-24.87
2023-01-19T16:54:20.597Z,-24.90
2023-01-19T16:57:23.824Z,-25.00
2023-01-19T17:00:26.985Z,-25.15
2023-01-19T17:03:29.748Z,-25.16
2023-01-19T17:06:33.596Z,-25.37
2023-01-19T17:09:36.683Z,-25.42
2023-01-19T17:12:39.753Z,-25.45
2023-01-19T17:15:43.831Z,-25.46
2023-01-19T17:18:47.019Z,-25.45
2023-01-19T17:21:50.321Z,-25.46
2023-01-19T17:24:53.482Z,-25.56
2023-01-19T17:27:56.294Z,-25.61
2023-01-19T17:31:06.504Z,-25.75
2023-01-19T17:34:10.534Z,-25.89
2023-01-19T17:37:13.745Z,-25.93
2023-01-19T17:40:16.741Z,-25.96
2023-01-19T17:43:19.827Z,-26.03
2023-01-19T17:46:24.798Z,-26.01
2023-01-19T17:49:28.090Z,-26.01
2023-01-19T17:52:32.044Z,-26.09
2023-01-19T17:55:36.325Z,-26.17
2023-01-19T17:58:40.903Z,-26.22
2023-01-19T18:01:45.159Z,-26.32
2023-01-19T18:04:48.274Z,-26.44
2023-01-19T18:07:51.089Z,-26.43
2023-01-19T18:10:58.410Z,-26.49
2023-01-19T18:14:02.785Z,-26.63
2023-01-19T18:17:05.992Z,-26.71
2023-01-19T18:20:10.138Z,-26.73
2023-01-19T18:23:13.534Z,-26.86
2023-01-19T18:26:23.509Z,-26.84
2023-01-19T18:29:26.650Z,-26.74
2023-01-19T18:32:29.773Z,-26.76
2023-01-19T18:35:32.765Z,-26.74
2023-01-19T18:38:36.860Z,-26.81
2023-01-19T18:41:42.821Z,-26.72
2023-01-19T18:44:45.968Z,-26.52
2023-01-19T18:47:49.156Z,-26.49
2023-01-19T18:50:52.259Z,-26.69
2023-01-19T18:53:55.463Z,-26.89
2023-01-19T18:56:59.478Z,-26.99
2023-01-19T19:00:03.244Z,-27.00
2023-01-19T19:03:10.875Z,-26.97
2023-01-19T19:06:15.016Z,-26.97
2023-01-19T19:09:18.098Z,-27.06
2023-01-19T19:12:21.196Z,-27.17
2023-01-19T19:15:24.923Z,-27.30
2023-01-19T19:18:28.065Z,-27.38
2023-01-19T19:21:31.140Z,-27.34
2023-01-19T19:24:34.403Z,-27.23
2023-01-19T19:27:37.905Z,-27.20
2023-01-19T19:30:42.219Z,-27.15
2023-01-19T19:33:45.527Z,-27.21
2023-01-19T19:36:48.705Z,-27.29
2023-01-19T19:39:51.779Z,-27.40
2023-01-19T19:42:56.968Z,-27.44
2023-01-19T19:46:09.603Z,-27.45
2023-01-19T19:49:12.915Z,-27.53
2023-01-19T19:52:16.045Z,-27.62
2023-01-19T19:55:21.660Z,-27.69
2023-01-19T19:58:25.257Z,-27.84
2023-01-19T20:01:33.204Z,-27.90
2023-01-19T20:04:37.121Z,-27.90
2023-01-19T20:07:46.871Z,-27.90
2023-01-19T20:10:50.037Z,-27.89
2023-01-19T20:13:53.409Z,-27.78
2023-01-19T20:16:56.556Z,-27.62
2023-01-19T20:20:00.162Z,-27.77
2023-01-19T20:23:03.338Z,-27.87
2023-01-19T20:26:10.690Z,-27.89
2023-01-19T20:29:13.956Z,-27.98
2023-01-19T20:32:18.115Z,-27.92
2023-01-19T20:35:21.371Z,-27.73
2023-01-19T20:38:24.574Z,-27.38
2023-01-19T20:41:28.169Z,-27.11
2023-01-19T20:44:31.262Z,-27.00
2023-01-19T20:47:34.674Z,-26.80
2023-01-19T20:50:38.280Z,-26.64
2023-01-19T20:53:42.537Z,-26.51
2023-01-19T20:56:45.963Z,-26.63
2023-01-19T20:59:49.105Z,-26.80
2023-01-19T21:02:52.238Z,-26.74
2023-01-19T21:05:57.429Z,-26.85
2023-01-19T21:09:01.824Z,-27.19
2023-01-19T21:12:05.358Z,-27.26
2023-01-19T21:15:09.123Z,-27.07
2023-01-19T21:18:12.360Z,-26.87
2023-01-19T21:21:29.348Z,-26.71
2023-01-19T21:24:36.286Z,-26.66
2023-01-19T21:27:39.514Z,-26.60
2023-01-19T21:30:42.755Z,-26.53
2023-01-19T21:33:45.937Z,-26.63
2023-01-19T21:36:49.059Z,-27.00
2023-01-19T21:39:51.902Z,-27.29
2023-01-19T21:42:55.154Z,-27.30
2023-01-19T21:46:09.771Z,-27.26
2023-01-19T21:49:19.217Z,-27.48
2023-01-19T21:52:22.337Z,-27.93
2023-01-19T21:55:25.481Z,-28.33
2023-01-19T21:58:28.767Z,-28.46
2023-01-19T22:01:33.507Z,-28.70
2023-01-19T22:04:36.746Z,-28.82
2023-01-19T22:07:39.900Z,-28.65
2023-01-19T22:10:43.085Z,-28.25
2023-01-19T22:13:46.561Z,-27.85
2023-01-19T22:16:49.848Z,-27.54
2023-01-19T22:19:53.088Z,-27.34
2023-01-19T22:22:57.308Z,-27.45
2023-01-19T22:26:01.148Z,-27.53
2023-01-19T22:29:05.720Z,-27.49
2023-01-19T22:32:09.172Z,-27.54
2023-01-19T22:35:12.567Z,-27.81
2023-01-19T22:38:15.826Z,-28.13
2023-01-19T22:41:22.306Z,-28.41
2023-01-19T22:44:25.542Z,-28.45
2023-01-19T22:47:28.660Z,-28.45
2023-01-19T22:50:31.828Z,-28.53
2023-01-19T22:53:35.081Z,-28.44
2023-01-19T22:56:39.789Z,-28.60
2023-01-19T22:59:44.234Z,-28.72
2023-01-19T23:02:47.339Z,-28.92
2023-01-19T23:05:50.513Z,-29.08
2023-01-19T23:08:56.012Z,-29.27
2023-01-19T23:11:59.344Z,-29.44
2023-01-19T23:15:02.516Z,-29.39
2023-01-19T23:18:05.641Z,-29.19
2023-01-19T23:21:20.491Z,-29.21
2023-01-19T23:24:23.648Z,-29.23
2023-01-19T23:27:27.284Z,-29.31
2023-01-19T23:30:30.610Z,-29.46
2023-01-19T23:33:33.801Z,-29.55
2023-01-19T23:36:39.252Z,-29.39
2023-01-19T23:39:42.583Z,-29.12
2023-01-19T23:42:45.871Z,-29.02
2023-01-19T23:45:49.026Z,-28.92
2023-01-19T23:48:52.027Z,-28.70
2023-01-19T23:51:55.161Z,-28.45
2023-01-19T23:54:58.790Z,-28.28
2023-01-19T23:58:02.461Z,-28.16
